Time,TemperatureF,DewpointF,PressureIn,WindDirection,WindDirectionDegrees,WindSpeedMPH,WindSpeedGustMPH,Humidity,HourlyPrecipIn,Conditions,Clouds,dailyrainin,SoftwareType,DateUTC
2013-02-08 00:02:00,29.1,24.6,30.20,SSW,208,0.0,0.0,83,0.00,RA,FEW,0.00,WeatherDisplay:10.37,2013-02-08 08:02:00,
2013-02-08 00:17:00,28.8,24.2,30.20,SW,235,0.0,0.0,83,0.00,BKN,FEW,0.00,WeatherDisplay:10.37,2013-02-08 08:17:00,
2013-02-08 00:32:00,28.8,24.2,30.21,WSW,256,0.0,0.0,83,0.00,BKN,FEW,0.00,WeatherDisplay:10.37,2013-02-08 08:32:00,
2013-02-08 00:47:00,28.6,24.1,30.21,SSW,202,0.0,0.0,83,0.00,BKN,FEW,0.00,WeatherDisplay:10.37,2013-02-08 08:47:00,
2013-02-08 01:02:00,28.3,23.8,30.22,NNW,330,0.0,0.0,83,0.00,BKN,FEW,0.00,WeatherDisplay:10.37,2013-02-08 09:02:00,
2013-02-08 01:17:00,28.2,24.0,30.21,West,270,0.0,0.0,84,0.00,BKN,FEW,0.00,WeatherDisplay:10.37,2013-02-08 09:17:00,
2013-02-08 01:32:00,28.0,23.5,30.21,West,270,0.0,0.0,83,0.00,BKN,FEW,0.00,WeatherDisplay:10.37,2013-02-08 09:32:00,
2013-02-08 01:47:00,28.0,23.5,30.22,West,270,0.0,0.0,83,0.00,BKN,FEW,0.00,WeatherDisplay:10.37,2013-02-08 09:47:00,
2013-02-08 02:02:00,27.7,23.2,30.22,West,270,0.0,0.0,83,0.00,FEW,FEW,0.00,WeatherDisplay:10.37,2013-02-08 10:02:00,
2013-02-08 02:17:00,27.7,23.5,30.23,West,270,0.0,0.0,84,0.00,FEW,FEW,0.00,WeatherDisplay:10.37,2013-02-08 10:17:00,
2013-02-08 02:32:00,27.6,23.4,30.23,West,270,0.0,0.0,84,0.00,FEW,FEW,0.00,WeatherDisplay:10.37,2013-02-08 10:32:00,
2013-02-08 02:47:00,27.5,23.3,30.23,West,270,0.0,0.0,84,0.00,FEW,FEW,0.00,WeatherDisplay:10.37,2013-02-08 10:47:00,
2013-02-08 03:02:00,27.2,23.0,30.23,West,270,0.0,0.0,84,0.00,FEW,FEW,0.00,WeatherDisplay:10.37,2013-02-08 11:02:00,
2013-02-08 03:17:00,27.1,22.9,30.23,West,270,0.0,0.0,84,0.00,FEW,FEW,0.00,WeatherDisplay:10.37,2013-02-08 11:17:00,
2013-02-08 03:32:00,27.1,22.9,30.24,NNW,338,0.0,0.0,84,0.00,FEW,FEW,0.00,WeatherDisplay:10.37,2013-02-08 11:32:00,
2013-02-08 03:47:00,26.8,22.6,30.24,WNW,292,0.0,0.0,84,0.00,FEW,FEW,0.00,WeatherDisplay:10.37,2013-02-08 11:47:00,
2013-02-08 04:02:00,26.4,22.2,30.24,WNW,292,0.0,0.0,84,0.00,CLR,FEW,0.00,WeatherDisplay:10.37,2013-02-08 12:02:00,
2013-02-08 04:17:00,26.2,22.1,30.25,WNW,300,0.0,0.0,84,0.00,CLR,FEW,0.00,WeatherDisplay:10.37,2013-02-08 12:17:00,
2013-02-08 04:32:00,26.4,22.2,30.26,North,0,0.0,0.0,84,0.00,CLR,FEW,0.00,WeatherDisplay:10.37,2013-02-08 12:32:00,
2013-02-08 04:47:00,26.2,22.1,30.26,North,353,0.0,0.0,84,0.00,CLR,FEW,0.00,WeatherDisplay:10.37,2013-02-08 12:47:00,
2013-02-08 05:02:00,25.9,21.7,30.27,WNW,292,0.0,0.0,84,0.00,CLR,FEW,0.00,WeatherDisplay:10.37,2013-02-08 13:02:00,
2013-02-08 05:17:00,25.7,21.5,30.27,West,270,0.0,0.0,84,0.00,CLR,FEW,0.00,WeatherDisplay:10.37,2013-02-08 13:17:00,
2013-02-08 05:32:00,25.5,21.4,30.27,West,270,0.0,0.0,84,0.00,CLR,FEW,0.00,WeatherDisplay:10.37,2013-02-08 13:32:00,
2013-02-08 05:47:00,25.4,21.3,30.27,West,270,0.0,0.0,84,0.00,CLR,FEW,0.00,WeatherDisplay:10.37,2013-02-08 13:47:00,
2013-02-08 06:02:00,25.0,20.9,30.27,WSW,248,0.0,0.0,84,0.00,FEW,FEW,0.00,WeatherDisplay:10.37,2013-02-08 14:02:00,
2013-02-08 06:17:00,25.3,21.2,30.27,NNW,340,0.0,0.0,84,0.00,FEW,FEW,0.00,WeatherDisplay:10.37,2013-02-08 14:17:00,
2013-02-08 06:32:00,25.3,21.2,30.27,WNW,292,0.0,0.0,84,0.00,FEW,FEW,0.00,WeatherDisplay:10.37,2013-02-08 14:32:00,
2013-02-08 06:47:00,25.2,21.0,30.27,West,270,0.0,0.0,84,0.00,FEW,FEW,0.00,WeatherDisplay:10.37,2013-02-08 14:47:00,
2013-02-08 07:02:00,25.0,20.8,30.27,West,270,0.0,0.0,84,0.00,CLR,FEW,0.00,WeatherDisplay:10.37,2013-02-08 15:02:00,
2013-02-08 07:17:00,25.3,21.2,30.28,WNW,284,0.0,0.0,84,0.00,CLR,FEW,0.00,WeatherDisplay:10.37,2013-02-08 15:17:00,
2013-02-08 07:32:00,25.5,21.3,30.29,South,190,0.0,0.0,84,0.00,CLR,FEW,0.00,WeatherDisplay:10.37,2013-02-08 15:32:00,
2013-02-08 07:47:00,25.7,21.5,30.28,SSE,158,0.0,0.0,84,0.00,CLR,FEW,0.00,WeatherDisplay:10.37,2013-02-08 15:47:00,
2013-02-08 08:02:00,25.9,21.7,30.28,West,274,0.0,0.0,84,0.00,OVC,FEW,0.00,WeatherDisplay:10.37,2013-02-08 16:02:00,
2013-02-08 08:17:00,25.9,21.7,30.28,West,278,0.0,0.0,84,0.00,OVC,FEW,0.00,WeatherDisplay:10.37,2013-02-08 16:17:00,
2013-02-08 08:32:00,26.2,22.1,30.29,NW,315,0.0,0.0,84,0.00,OVC,FEW,0.00,WeatherDisplay:10.37,2013-02-08 16:32:00,
2013-02-08 08:47:00,26.9,22.7,30.29,SSW,195,0.0,0.0,84,0.00,OVC,FEW,0.00,WeatherDisplay:10.37,2013-02-08 16:47:00,
2013-02-08 09:02:00,27.8,23.6,30.29,South,180,0.0,0.0,84,0.00,CLR,FEW,0.00,WeatherDisplay:10.37,2013-02-08 17:02:00,
2013-02-08 09:17:00,29.2,25.3,30.30,South,180,0.0,0.0,85,0.00,CLR,FEW,0.00,WeatherDisplay:10.37,2013-02-08 17:17:00,
2013-02-08 09:32:00,31.3,27.3,30.31,NE,34,0.0,0.0,85,0.00,CLR,FEW,0.00,WeatherDisplay:10.37,2013-02-08 17:32:00,
2013-02-08 09:47:00,33.6,29.9,30.30,ENE,68,0.0,0.0,86,0.00,CLR,FEW,0.00,WeatherDisplay:10.37,2013-02-08 17:47:00,
2013-02-08 10:02:00,35.8,32.0,30.31,ESE,114,0.0,0.0,86,0.00,CLR,FEW,0.00,WeatherDisplay:10.37,2013-02-08 18:02:00,
2013-02-08 10:17:00,37.6,33.8,30.31,East,85,0.0,0.0,86,0.00,CLR,FEW,0.00,WeatherDisplay:10.37,2013-02-08 18:17:00,
2013-02-08 10:32:00,39.4,35.6,30.31,SSE,151,0.0,1.0,86,0.02,RA,FEW,0.02,WeatherDisplay:10.37,2013-02-08 18:32:00,
2013-02-08 10:47:00,41.2,37.3,30.30,West,276,0.0,0.0,86,0.00,CLR,FEW,0.02,WeatherDisplay:10.37,2013-02-08 18:47:00,
2013-02-08 11:02:00,42.9,39.3,30.30,NW,318,0.0,1.0,87,0.00,CLR,FEW,0.02,WeatherDisplay:10.37,2013-02-08 19:02:00,
2013-02-08 11:17:00,44.2,40.3,30.30,NNW,344,1.0,2.0,86,0.00,CLR,FEW,0.02,WeatherDisplay:10.37,2013-02-08 19:17:00,
2013-02-08 11:32:00,45.3,41.1,30.29,NNW,346,0.0,2.0,85,0.00,CLR,FEW,0.02,WeatherDisplay:10.37,2013-02-08 19:32:00,
2013-02-08 11:47:00,46.6,41.4,30.28,NE,55,0.0,4.0,82,0.00,CLR,FEW,0.02,WeatherDisplay:10.37,2013-02-08 19:47:00,
2013-02-08 12:02:00,47.1,39.9,30.28,NNE,20,0.0,5.0,76,0.00,CLR,FEW,0.02,WeatherDisplay:10.37,2013-02-08 20:02:00,
2013-02-08 12:17:00,47.7,39.1,30.27,North,353,1.0,4.0,72,0.00,CLR,FEW,0.02,WeatherDisplay:10.37,2013-02-08 20:17:00,
2013-02-08 12:32:00,48.7,39.3,30.27,West,279,0.0,4.0,70,0.00,CLR,FEW,0.02,WeatherDisplay:10.37,2013-02-08 20:32:00,
2013-02-08 12:47:00,49.1,39.4,30.27,NNW,334,1.0,5.0,69,0.00,CLR,FEW,0.02,WeatherDisplay:10.37,2013-02-08 20:47:00,
2013-02-08 13:02:00,49.6,39.1,30.27,West,272,2.0,5.0,67,0.00,CLR,FEW,0.02,WeatherDisplay:10.37,2013-02-08 21:02:00,
2013-02-08 13:17:00,49.3,38.0,30.27,NW,318,1.0,6.0,65,0.00,CLR,FEW,0.02,WeatherDisplay:10.37,2013-02-08 21:17:00,
2013-02-08 13:32:00,49.8,38.5,30.27,West,276,3.0,6.0,65,0.00,CLR,FEW,0.02,WeatherDisplay:10.37,2013-02-08 21:32:00,
2013-02-08 13:47:00,50.2,38.5,30.26,West,281,1.0,6.0,64,0.00,CLR,FEW,0.02,WeatherDisplay:10.37,2013-02-08 21:47:00,
2013-02-08 14:02:00,51.3,39.5,30.26,West,262,0.0,5.0,64,0.00,CLR,FEW,0.02,WeatherDisplay:10.37,2013-02-08 22:02:00,
2013-02-08 14:17:00,51.4,38.8,30.26,West,273,1.0,7.0,62,0.00,CLR,FEW,0.02,WeatherDisplay:10.37,2013-02-08 22:17:00,
2013-02-08 14:32:00,49.8,37.7,30.26,WNW,287,2.0,6.0,63,0.00,CLR,FEW,0.02,WeatherDisplay:10.37,2013-02-08 22:32:00,
2013-02-08 14:47:00,48.7,37.1,30.27,West,276,2.0,5.0,64,0.00,CLR,FEW,0.02,WeatherDisplay:10.37,2013-02-08 22:47:00,
2013-02-08 15:02:00,48.0,37.2,30.27,West,264,3.0,7.0,66,0.00,CLR,FEW,0.02,WeatherDisplay:10.37,2013-02-08 23:02:00,
2013-02-08 15:17:00,47.8,37.4,30.27,West,261,1.0,5.0,67,0.00,CLR,FEW,0.02,WeatherDisplay:10.37,2013-02-08 23:17:00,
2013-02-08 15:32:00,48.0,37.6,30.27,West,266,1.0,6.0,67,0.00,CLR,FEW,0.02,WeatherDisplay:10.37,2013-02-08 23:32:00,
2013-02-08 15:47:00,47.5,37.8,30.27,WSW,239,3.0,8.0,69,0.00,CLR,FEW,0.02,WeatherDisplay:10.37,2013-02-08 23:47:00,
2013-02-08 16:02:00,47.3,37.6,30.27,WSW,248,2.0,10.0,69,0.00,CLR,FEW,0.02,WeatherDisplay:10.37,2013-02-09 00:02:00,
2013-02-08 16:17:00,47.1,37.8,30.27,WNW,287,2.0,6.0,70,0.00,CLR,FEW,0.02,WeatherDisplay:10.37,2013-02-09 00:17:00,
2013-02-08 16:32:00,46.5,37.2,30.27,West,273,2.0,9.0,70,0.00,CLR,FEW,0.02,WeatherDisplay:10.37,2013-02-09 00:32:00,
2013-02-08 16:47:00,46.0,37.2,30.27,West,273,2.0,11.0,71,0.00,CLR,FEW,0.02,WeatherDisplay:10.37,2013-02-09 00:47:00,
2013-02-08 17:02:00,45.5,36.6,30.27,West,278,0.0,6.0,71,0.00,CLR,FEW,0.02,WeatherDisplay:10.37,2013-02-09 01:02:00,
2013-02-08 17:17:00,44.7,36.2,30.27,West,273,0.0,4.0,72,0.00,CLR,FEW,0.02,WeatherDisplay:10.37,2013-02-09 01:17:00,
2013-02-08 17:32:00,43.9,35.4,30.27,West,279,0.0,3.0,72,0.00,CLR,FEW,0.02,WeatherDisplay:10.37,2013-02-09 01:32:00,
2013-02-08 17:47:00,43.5,35.4,30.27,West,278,0.0,3.0,73,0.00,CLR,FEW,0.02,WeatherDisplay:10.37,2013-02-09 01:47:00,
2013-02-08 18:02:00,43.3,35.3,30.28,NNW,328,1.0,5.0,73,0.00,SCT,FEW,0.02,WeatherDisplay:10.37,2013-02-09 02:02:00,
2013-02-08 18:17:00,43.4,35.0,30.28,NNW,334,1.0,8.0,72,0.00,SCT,FEW,0.02,WeatherDisplay:10.37,2013-02-09 02:17:00,
2013-02-08 18:32:00,43.2,35.1,30.28,NW,325,1.0,3.0,73,0.00,SCT,FEW,0.02,WeatherDisplay:10.37,2013-02-09 02:32:00,
2013-02-08 18:47:00,43.0,34.9,30.28,WNW,292,0.0,2.0,73,0.00,SCT,FEW,0.02,WeatherDisplay:10.37,2013-02-09 02:47:00,
2013-02-08 19:02:00,42.6,34.9,30.28,SE,135,0.0,0.0,74,0.00,SCT,FEW,0.02,WeatherDisplay:10.37,2013-02-09 03:02:00,
2013-02-08 19:17:00,42.1,34.4,30.28,SSE,149,0.0,0.0,74,0.00,SCT,FEW,0.02,WeatherDisplay:10.37,2013-02-09 03:17:00,
2013-02-08 19:32:00,41.5,34.2,30.28,SE,128,0.0,0.0,75,0.00,SCT,FEW,0.02,WeatherDisplay:10.37,2013-02-09 03:32:00,
2013-02-08 19:47:00,40.8,33.5,30.29,ESE,112,0.0,0.0,75,0.00,SCT,FEW,0.02,WeatherDisplay:10.37,2013-02-09 03:47:00,
2013-02-08 20:02:00,39.7,32.8,30.29,ESE,112,0.0,0.0,76,0.00,OVC,FEW,0.02,WeatherDisplay:10.37,2013-02-09 04:02:00,
2013-02-08 20:17:00,39.4,32.8,30.29,SE,135,0.0,0.0,77,0.00,OVC,FEW,0.02,WeatherDisplay:10.37,2013-02-09 04:17:00,
2013-02-08 20:32:00,39.0,32.4,30.28,SSE,148,0.0,0.0,77,0.00,OVC,FEW,0.02,WeatherDisplay:10.37,2013-02-09 04:32:00,
2013-02-08 20:47:00,39.2,32.9,30.29,South,170,0.0,0.0,78,0.00,OVC,FEW,0.02,WeatherDisplay:10.37,2013-02-09 04:47:00,
2013-02-08 21:02:00,39.4,33.4,30.29,ENE,68,0.0,0.0,79,0.00,OVC,FEW,0.02,WeatherDisplay:10.37,2013-02-09 05:02:00,
2013-02-08 21:17:00,39.6,33.6,30.29,North,0,0.0,0.0,79,0.00,OVC,FEW,0.02,WeatherDisplay:10.37,2013-02-09 05:17:00,
2013-02-08 21:32:00,39.5,33.6,30.30,North,0,0.0,0.0,79,0.00,OVC,FEW,0.02,WeatherDisplay:10.37,2013-02-09 05:32:00,
2013-02-08 21:47:00,39.4,33.4,30.29,East,90,0.0,0.0,79,0.00,OVC,FEW,0.02,WeatherDisplay:10.37,2013-02-09 05:47:00,
2013-02-08 22:02:00,39.4,33.7,30.29,East,90,0.0,0.0,80,0.00,OVC,FEW,0.02,WeatherDisplay:10.37,2013-02-09 06:02:00,
2013-02-08 22:17:00,39.4,33.7,30.30,East,90,0.0,0.0,80,0.00,OVC,FEW,0.02,WeatherDisplay:10.37,2013-02-09 06:17:00,
2013-02-08 22:32:00,39.4,33.7,30.30,East,90,0.0,0.0,80,0.00,OVC,FEW,0.02,WeatherDisplay:10.37,2013-02-09 06:32:00,
2013-02-08 22:47:00,39.4,33.7,30.30,East,90,0.0,0.0,80,0.00,OVC,FEW,0.02,WeatherDisplay:10.37,2013-02-09 06:47:00,
2013-02-08 23:02:00,39.1,33.8,30.30,East,90,0.0,0.0,81,0.00,OVC,FEW,0.02,WeatherDisplay:10.37,2013-02-09 07:02:00,
2013-02-08 23:17:00,39.0,33.7,30.30,East,90,0.0,0.0,81,0.00,OVC,FEW,0.02,WeatherDisplay:10.37,2013-02-09 07:17:00,
2013-02-08 23:32:00,39.0,33.7,30.30,East,90,0.0,0.0,81,0.00,OVC,FEW,0.02,WeatherDisplay:10.37,2013-02-09 07:32:00,
2013-02-08 23:47:00,38.8,33.5,30.30,East,90,0.0,0.0,81,0.00,OVC,FEW,0.02,WeatherDisplay:10.37,2013-02-09 07:47:00,